Time;durP1;ratioP1;P1;durP2;ratioP2;P2;SDS_P1;SDS_P2;PMS_P1;PMS_P2;Temp;Humidity;BMP_temperature;BMP_pressure;BME280_temperature;BME280_humidity;BME280_pressure;Samples;Min_cycle;Max_cycle;Signal;HPM_P1;HPM_P2
2021/06/19 00:02:38;;;;;;;;;;;20.90;99.90;;;;;;5071777;28;19933;-65
2021/06/19 00:05:27;;;;;;;;;;;20.80;99.90;;;;;;5059338;28;19968;-65
2021/06/19 00:08:15;;;;;;;;;;;20.80;99.90;;;;;;5072452;28;19970;-66
2021/06/19 00:11:04;;;;;;;;;;;20.70;99.90;;;;;;5071184;28;19928;-65
2021/06/19 00:13:53;;;;;;;;;;;20.60;99.90;;;;;;5067049;28;19925;-65
2021/06/19 00:16:42;;;;;;;;;;;20.60;99.90;;;;;;5063561;28;20315;-66
2021/06/19 00:19:32;;;;;;;;;;;20.60;99.90;;;;;;5070610;28;19935;-65
2021/06/19 00:22:20;;;;;;;;;;;20.60;99.90;;;;;;5082004;28;19928;-65
2021/06/19 00:25:10;;;;;;;;;;;20.50;99.90;;;;;;5072525;28;20268;-66
2021/06/19 00:27:59;;;;;;;;;;;20.40;99.90;;;;;;5064567;28;20011;-68
2021/06/19 00:30:48;;;;;;;;;;;20.40;99.90;;;;;;5063622;28;20045;-66
2021/06/19 00:33:36;;;;;;;;;;;20.30;99.90;;;;;;5074594;28;19924;-66
2021/06/19 00:36:27;;;;;;;;;;;20.30;99.90;;;;;;5072180;28;19925;-68
2021/06/19 00:39:15;;;;;;;;;;;20.30;99.90;;;;;;5057834;28;19925;-66
2021/06/19 00:42:04;;;;;;;;;;;20.30;99.90;;;;;;5070953;28;19947;-66
2021/06/19 00:45:00;;;;;;;;;;;20.30;99.90;;;;;;5055973;28;20400;-66
2021/06/19 00:47:49;;;;;;;;;;;20.30;99.90;;;;;;5055481;28;19931;-67
2021/06/19 00:50:39;;;;;;;;;;;20.30;99.90;;;;;;5061791;28;19929;-66
2021/06/19 00:53:29;;;;;;;;;;;20.20;99.90;;;;;;5053315;28;20276;-66
2021/06/19 00:56:17;;;;;;;;;;;20.20;99.90;;;;;;5045803;28;20011;-65
2021/06/19 00:59:07;;;;;;;;;;;20.20;99.90;;;;;;5053557;28;19925;-66
2021/06/19 01:01:56;;;;;;;;;;;20.10;99.90;;;;;;5048916;28;20340;-65
2021/06/19 01:04:44;;;;;;;;;;;20.10;99.90;;;;;;5052279;28;19931;-66
2021/06/19 01:07:33;;;;;;;;;;;20.10;99.90;;;;;;5053873;28;20331;-66
2021/06/19 01:10:23;;;;;;;;;;;20.00;99.90;;;;;;5059818;28;20332;-65
2021/06/19 01:13:12;;;;;;;;;;;20.00;99.90;;;;;;5058153;28;19931;-65
2021/06/19 01:16:01;;;;;;;;;;;20.00;99.90;;;;;;5045751;28;19929;-66
2021/06/19 01:19:25;;;;;;;;;;;19.90;99.90;;;;;;5040342;28;19926;-66
2021/06/19 01:22:13;;;;;;;;;;;19.80;99.90;;;;;;5027219;28;19948;-66
2021/06/19 01:25:04;;;;;;;;;;;19.80;99.90;;;;;;5035848;28;19925;-66
2021/06/19 01:27:56;;;;;;;;;;;19.80;99.90;;;;;;5040514;28;19940;-66
2021/06/19 01:30:47;;;;;;;;;;;19.80;99.90;;;;;;5034095;28;19948;-65
2021/06/19 01:33:37;;;;;;;;;;;19.80;99.90;;;;;;5025302;28;19925;-66
2021/06/19 01:36:26;;;;;;;;;;;19.90;99.90;;;;;;5031449;28;19925;-65
2021/06/19 01:39:15;;;;;;;;;;;20.20;99.90;;;;;;5031714;28;19925;-65
2021/06/19 01:42:05;;;;;;;;;;;20.20;99.90;;;;;;5027466;28;19931;-65
2021/06/19 01:45:18;;;;;;;;;;;20.30;99.90;;;;;;5038347;28;20364;-65
2021/06/19 01:48:09;;;;;;;;;;;20.30;99.90;;;;;;5069635;28;20270;-65
2021/06/19 01:50:58;;;;;;;;;;;20.40;99.90;;;;;;5051607;28;19948;-65
2021/06/19 01:53:47;;;;;;;;;;;20.40;99.90;;;;;;5052268;28;20008;-65
2021/06/19 01:56:36;;;;;;;;;;;20.40;99.90;;;;;;5051830;28;20353;-65
2021/06/19 01:59:26;;;;;;;;;;;20.30;99.90;;;;;;5052285;28;19932;-65
2021/06/19 02:02:14;;;;;;;;;;;20.20;99.90;;;;;;5030339;28;19925;-66
2021/06/19 02:05:04;;;;;;;;;;;20.20;99.90;;;;;;5019431;28;20016;-66
2021/06/19 02:07:59;;;;;;;;;;;20.10;99.90;;;;;;5025567;28;19928;-65
2021/06/19 02:10:50;;;;;;;;;;;20.20;99.90;;;;;;5009783;28;19925;-66
2021/06/19 02:13:39;;;;;;;;;;;20.00;99.90;;;;;;5030331;28;19929;-66
2021/06/19 02:16:53;;;;;;;;;;;19.90;99.90;;;;;;5034486;28;19983;-65
2021/06/19 02:19:44;;;;;;;;;;;19.80;99.90;;;;;;5044645;28;19934;-66
2021/06/19 02:22:33;;;;;;;;;;;19.80;99.90;;;;;;5048821;28;19924;-65
2021/06/19 02:25:24;;;;;;;;;;;19.70;99.90;;;;;;5040371;28;19932;-64
2021/06/19 02:28:13;;;;;;;;;;;19.60;99.90;;;;;;5045466;28;19925;-65
2021/06/19 02:31:01;;;;;;;;;;;19.60;99.90;;;;;;5045528;28;20296;-65
2021/06/19 02:33:50;;;;;;;;;;;19.60;99.90;;;;;;5050898;28;20011;-65
2021/06/19 02:36:40;;;;;;;;;;;19.60;99.90;;;;;;5043688;28;19925;-65
2021/06/19 02:39:28;;;;;;;;;;;19.70;99.90;;;;;;5049687;28;20377;-65
2021/06/19 02:42:17;;;;;;;;;;;19.70;99.90;;;;;;5049954;28;19925;-65
2021/06/19 02:45:10;;;;;;;;;;;19.70;99.90;;;;;;5030220;28;20276;-66
2021/06/19 02:47:59;;;;;;;;;;;19.70;99.90;;;;;;5038401;28;19939;-68
2021/06/19 02:51:13;;;;;;;;;;;19.80;99.90;;;;;;5051546;28;20360;-65
2021/06/19 02:54:03;;;;;;;;;;;19.90;99.90;;;;;;5050683;28;20133;-65
2021/06/19 03:00:04;;;;;;;;;;;20.10;99.90;;;;;;5022041;28;19941;-65
2021/06/19 03:02:53;;;;;;;;;;;20.10;99.90;;;;;;5053134;28;19952;-65
2021/06/19 03:05:42;;;;;;;;;;;20.10;99.90;;;;;;5044711;28;20019;-65
2021/06/19 03:08:31;;;;;;;;;;;20.10;99.90;;;;;;5047566;28;19991;-66
2021/06/19 03:11:22;;;;;;;;;;;20.10;99.90;;;;;;5063775;28;19932;-65
2021/06/19 03:14:11;;;;;;;;;;;20.20;99.90;;;;;;5057417;28;20277;-65
2021/06/19 03:16:59;;;;;;;;;;;20.20;99.90;;;;;;5046640;28;19936;-65
2021/06/19 03:19:48;;;;;;;;;;;20.10;99.90;;;;;;5041360;28;19932;-65
2021/06/19 03:22:43;;;;;;;;;;;20.00;99.90;;;;;;5055192;28;20311;-66
2021/06/19 03:25:33;;;;;;;;;;;19.90;99.90;;;;;;5059154;28;20289;-68
2021/06/19 03:28:23;;;;;;;;;;;19.80;99.90;;;;;;5047669;28;19924;-65
2021/06/19 03:31:12;;;;;;;;;;;19.70;99.90;;;;;;5044707;28;19932;-65
2021/06/19 03:34:01;;;;;;;;;;;19.80;99.90;;;;;;5040164;28;19932;-65
2021/06/19 03:36:52;;;;;;;;;;;19.80;99.90;;;;;;5050156;28;20067;-65
2021/06/19 03:39:41;;;;;;;;;;;19.90;99.90;;;;;;5055599;28;19925;-65
2021/06/19 03:42:29;;;;;;;;;;;19.90;99.90;;;;;;5047390;28;19947;-65
2021/06/19 03:45:20;;;;;;;;;;;19.90;99.90;;;;;;5066295;28;19928;-65
2021/06/19 03:48:09;;;;;;;;;;;19.90;99.90;;;;;;5040432;28;20007;-65
2021/06/19 03:50:58;;;;;;;;;;;19.90;99.90;;;;;;5044454;28;20312;-65
2021/06/19 03:53:47;;;;;;;;;;;20.00;99.90;;;;;;5047040;28;19925;-67
2021/06/19 03:56:35;;;;;;;;;;;20.00;99.90;;;;;;5058113;28;19992;-66
2021/06/19 03:59:24;;;;;;;;;;;20.00;99.90;;;;;;5068595;28;20008;-66
2021/06/19 04:02:15;;;;;;;;;;;20.10;99.90;;;;;;5051847;28;19951;-67
2021/06/19 04:05:04;;;;;;;;;;;20.20;99.90;;;;;;5061979;28;19924;-66
2021/06/19 04:07:53;;;;;;;;;;;20.40;99.90;;;;;;5049500;28;19933;-66
2021/06/19 04:10:42;;;;;;;;;;;20.50;99.90;;;;;;5066435;28;19925;-66
2021/06/19 04:13:31;;;;;;;;;;;20.50;99.90;;;;;;5063006;28;20081;-66
2021/06/19 04:16:19;;;;;;;;;;;20.50;99.90;;;;;;5050276;28;19925;-66
2021/06/19 04:19:09;;;;;;;;;;;20.50;99.90;;;;;;5061314;28;19931;-65
2021/06/19 04:21:58;;;;;;;;;;;20.40;99.90;;;;;;5055362;28;19960;-66
2021/06/19 04:24:47;;;;;;;;;;;20.40;99.90;;;;;;5051191;28;19925;-66
2021/06/19 04:27:40;;;;;;;;;;;20.40;99.90;;;;;;5044430;28;19951;-65
2021/06/19 04:30:29;;;;;;;;;;;20.50;99.90;;;;;;5046412;28;20327;-66
2021/06/19 04:33:17;;;;;;;;;;;20.60;99.90;;;;;;5075147;28;19931;-66
2021/06/19 04:36:08;;;;;;;;;;;20.60;99.90;;;;;;5058678;28;19924;-67
2021/06/19 04:38:57;;;;;;;;;;;20.70;99.90;;;;;;5066382;28;19924;-65
2021/06/19 04:41:51;;;;;;;;;;;20.80;99.90;;;;;;5061877;28;20403;-66
2021/06/19 04:48:10;;;;;;;;;;;21.10;99.90;;;;;;5062772;28;19925;-65
2021/06/19 04:50:59;;;;;;;;;;;21.20;99.90;;;;;;5063253;28;19982;-65
2021/06/19 04:53:49;;;;;;;;;;;21.20;99.90;;;;;;5064267;28;19924;-65
2021/06/19 04:56:38;;;;;;;;;;;21.30;99.90;;;;;;5063650;28;19955;-65
2021/06/19 04:59:27;;;;;;;;;;;21.40;99.90;;;;;;5056522;28;20439;-65
2021/06/19 05:02:16;;;;;;;;;;;21.50;99.90;;;;;;5046001;28;19924;-64
2021/06/19 05:05:05;;;;;;;;;;;21.60;99.90;;;;;;5061783;28;20356;-65
2021/06/19 05:07:53;;;;;;;;;;;21.70;99.90;;;;;;5062490;28;20007;-65
2021/06/19 05:10:43;;;;;;;;;;;21.60;99.90;;;;;;5050267;28;19935;-65
2021/06/19 05:13:32;;;;;;;;;;;21.70;99.90;;;;;;5071212;28;19928;-65
2021/06/19 05:16:21;;;;;;;;;;;21.70;99.90;;;;;;5063310;28;19925;-65
2021/06/19 05:19:12;;;;;;;;;;;21.90;99.90;;;;;;5049711;28;19932;-65
2021/06/19 05:22:01;;;;;;;;;;;22.00;99.90;;;;;;5061459;28;19925;-66
2021/06/19 05:24:49;;;;;;;;;;;22.10;99.90;;;;;;5049966;28;19924;-66
2021/06/19 05:27:39;;;;;;;;;;;22.10;99.90;;;;;;5061667;28;19924;-66
2021/06/19 05:30:28;;;;;;;;;;;22.10;99.90;;;;;;5060836;28;20019;-65
2021/06/19 05:33:17;;;;;;;;;;;21.90;99.90;;;;;;5064281;28;19932;-66
2021/06/19 05:36:06;;;;;;;;;;;21.70;99.90;;;;;;5068567;28;20380;-65
2021/06/19 05:38:55;;;;;;;;;;;21.70;99.90;;;;;;5054283;28;19931;-66
2021/06/19 05:41:43;;;;;;;;;;;21.60;99.90;;;;;;5066955;28;19937;-66
2021/06/19 05:44:33;;;;;;;;;;;21.60;99.90;;;;;;5065933;28;19931;-66
2021/06/19 05:47:23;;;;;;;;;;;21.60;99.90;;;;;;5062729;28;19924;-66
2021/06/19 05:50:12;;;;;;;;;;;21.60;99.90;;;;;;5070985;28;20292;-66
2021/06/19 05:53:02;;;;;;;;;;;21.50;99.90;;;;;;5065089;28;19932;-66
2021/06/19 05:55:50;;;;;;;;;;;21.60;99.90;;;;;;5070561;28;19925;-66
2021/06/19 05:58:39;;;;;;;;;;;21.60;99.90;;;;;;5056317;28;19924;-66
2021/06/19 06:01:30;;;;;;;;;;;21.70;99.90;;;;;;5068494;28;19932;-65
2021/06/19 06:04:23;;;;;;;;;;;21.80;99.90;;;;;;5070042;28;19951;-65
2021/06/19 06:07:11;;;;;;;;;;;21.80;99.90;;;;;;5068028;28;19939;-67
2021/06/19 06:10:00;;;;;;;;;;;21.80;99.90;;;;;;5058068;28;19977;-65
2021/06/19 06:12:48;;;;;;;;;;;22.00;99.90;;;;;;5057048;28;19938;-66
2021/06/19 06:15:37;;;;;;;;;;;22.10;99.90;;;;;;4984842;28;20401;-66
2021/06/19 06:18:26;;;;;;;;;;;22.30;99.90;;;;;;5062444;28;20054;-66
2021/06/19 06:21:15;;;;;;;;;;;22.40;99.90;;;;;;5072091;28;19928;-67
2021/06/19 06:24:04;;;;;;;;;;;22.50;99.90;;;;;;5065787;28;19973;-65
2021/06/19 06:26:53;;;;;;;;;;;22.40;99.90;;;;;;5059086;28;19925;-66
2021/06/19 06:29:41;;;;;;;;;;;22.40;99.90;;;;;;5063258;28;19939;-67
2021/06/19 06:32:30;;;;;;;;;;;22.40;99.90;;;;;;5068898;28;20370;-65
2021/06/19 06:35:18;;;;;;;;;;;22.50;99.90;;;;;;5073919;28;19928;-65
2021/06/19 06:38:09;;;;;;;;;;;22.60;99.90;;;;;;5072515;28;19939;-66
2021/06/19 06:40:58;;;;;;;;;;;22.70;99.90;;;;;;5066344;28;19928;-66
2021/06/19 06:43:47;;;;;;;;;;;22.80;99.90;;;;;;5062095;28;20277;-65
2021/06/19 06:46:35;;;;;;;;;;;23.10;99.90;;;;;;5060902;28;20015;-66
2021/06/19 06:49:24;;;;;;;;;;;23.50;99.90;;;;;;5069271;28;19928;-65
2021/06/19 06:52:13;;;;;;;;;;;24.00;99.90;;;;;;5057511;28;19926;-65
2021/06/19 06:55:05;;;;;;;;;;;24.50;99.90;;;;;;5061807;28;19972;-67
2021/06/19 06:57:53;;;;;;;;;;;24.60;99.90;;;;;;5056040;28;20459;-66
2021/06/19 07:00:42;;;;;;;;;;;24.70;99.90;;;;;;5061524;28;20416;-65
2021/06/19 07:03:30;;;;;;;;;;;25.00;99.90;;;;;;5068813;28;19924;-65
2021/06/19 07:06:19;;;;;;;;;;;24.80;99.90;;;;;;5054227;28;19924;-65
2021/06/19 07:09:07;;;;;;;;;;;25.00;99.90;;;;;;5056789;28;20066;-65
2021/06/19 07:11:57;;;;;;;;;;;25.70;99.90;;;;;;5064303;28;19935;-65
2021/06/19 07:14:46;;;;;;;;;;;26.40;99.90;;;;;;5072301;28;19986;-65
2021/06/19 07:17:40;;;;;;;;;;;26.60;99.90;;;;;;5059783;28;19932;-65
2021/06/19 07:20:28;;;;;;;;;;;26.50;99.90;;;;;;5068113;28;19929;-65
2021/06/19 07:23:17;;;;;;;;;;;26.30;99.90;;;;;;5072658;28;19924;-64
2021/06/19 07:26:06;;;;;;;;;;;26.10;99.90;;;;;;5070830;28;19929;-65
2021/06/19 07:28:56;;;;;;;;;;;26.20;99.90;;;;;;5072441;28;19928;-66
2021/06/19 07:34:56;;;;;;;;;;;25.90;99.90;;;;;;5041342;28;20707;-64
2021/06/19 07:37:46;;;;;;;;;;;25.70;99.90;;;;;;5044890;28;19939;-65
2021/06/19 07:40:34;;;;;;;;;;;25.50;99.90;;;;;;5064975;28;19990;-65
2021/06/19 07:43:23;;;;;;;;;;;25.40;99.90;;;;;;5050061;28;20305;-67
2021/06/19 07:46:13;;;;;;;;;;;25.40;99.90;;;;;;5058939;28;19995;-65
2021/06/19 07:49:03;;;;;;;;;;;25.50;99.90;;;;;;5058846;28;20285;-65
2021/06/19 07:51:52;;;;;;;;;;;25.70;99.90;;;;;;5057075;28;20015;-65
2021/06/19 07:54:40;;;;;;;;;;;25.90;99.90;;;;;;5058589;28;19960;-66
2021/06/19 07:57:31;;;;;;;;;;;26.30;99.90;;;;;;5068900;28;19935;-65
2021/06/19 08:00:20;;;;;;;;;;;27.00;99.90;;;;;;5063881;28;19929;-66
2021/06/19 08:03:17;;;;;;;;;;;27.50;99.90;;;;;;5066383;28;19925;-66
2021/06/19 08:06:06;;;;;;;;;;;27.30;99.90;;;;;;5058067;28;20403;-66
2021/06/19 08:08:54;;;;;;;;;;;27.30;99.90;;;;;;5064540;28;20383;-65
2021/06/19 08:14:56;;;;;;;;;;;26.90;99.90;;;;;;5069862;28;20702;-64
2021/06/19 08:18:09;;;;;;;;;;;26.60;99.90;;;;;;5063563;28;20507;-66
2021/06/19 08:21:01;;;;;;;;;;;26.50;99.90;;;;;;5071303;28;20296;-66
2021/06/19 08:23:49;;;;;;;;;;;26.30;99.90;;;;;;5069054;28;19924;-67
2021/06/19 08:26:38;;;;;;;;;;;26.10;99.90;;;;;;5067586;28;19924;-66
2021/06/19 08:29:27;;;;;;;;;;;26.00;99.90;;;;;;5054661;28;19924;-66
2021/06/19 08:32:17;;;;;;;;;;;26.10;99.90;;;;;;5029033;28;19932;-66
2021/06/19 08:35:06;;;;;;;;;;;26.40;99.90;;;;;;5050282;28;19929;-66
2021/06/19 08:37:56;;;;;;;;;;;26.60;99.90;;;;;;5049429;28;20007;-66
2021/06/19 08:40:45;;;;;;;;;;;27.70;99.90;;;;;;5043374;28;19929;-66
2021/06/19 08:43:38;;;;;;;;;;;31.20;95.10;;;;;;5047485;28;20490;-66
2021/06/19 08:46:27;;;;;;;;;;;33.90;87.50;;;;;;5027200;28;19933;-66
2021/06/19 08:49:16;;;;;;;;;;;33.70;81.80;;;;;;5046484;28;19940;-66
2021/06/19 08:52:05;;;;;;;;;;;34.60;79.30;;;;;;5051997;28;20327;-66
2021/06/19 08:54:55;;;;;;;;;;;34.10;78.30;;;;;;5046682;28;19932;-67
2021/06/19 08:57:44;;;;;;;;;;;34.10;78.40;;;;;;5040076;28;19940;-66
2021/06/19 09:00:32;;;;;;;;;;;36.80;70.30;;;;;;5039671;28;19928;-67
2021/06/19 09:03:21;;;;;;;;;;;38.60;60.40;;;;;;5046221;28;19925;-67
2021/06/19 09:06:17;;;;;;;;;;;39.30;55.50;;;;;;5039688;28;19933;-67
2021/06/19 09:09:07;;;;;;;;;;;38.60;54.70;;;;;;5046225;28;19935;-67
2021/06/19 09:11:57;;;;;;;;;;;39.30;54.30;;;;;;5044540;28;19952;-66
2021/06/19 09:14:46;;;;;;;;;;;39.80;52.60;;;;;;5037090;28;20379;-66
2021/06/19 09:17:34;;;;;;;;;;;38.10;54.30;;;;;;5043305;28;19925;-68
2021/06/19 09:20:52;;;;;;;;;;;36.10;57.80;;;;;;5038315;28;19925;-68
2021/06/19 09:23:41;;;;;;;;;;;38.10;56.00;;;;;;5042650;28;19929;-66
2021/06/19 09:26:32;;;;;;;;;;;40.60;51.50;;;;;;5051977;28;20007;-66
2021/06/19 09:29:22;;;;;;;;;;;41.80;47.10;;;;;;5051723;28;20267;-66
2021/06/19 09:32:10;;;;;;;;;;;41.60;46.70;;;;;;5038983;28;20384;-66
2021/06/19 09:35:09;;;;;;;;;;;37.70;50.00;;;;;;5053298;28;19924;-67
2021/06/19 09:37:59;;;;;;;;;;;35.00;58.50;;;;;;4977988;28;19925;-66
2021/06/19 09:40:48;;;;;;;;;;;33.70;62.60;;;;;;5048290;28;19936;-66
2021/06/19 09:43:45;;;;;;;;;;;32.90;64.20;;;;;;5052164;28;20047;-66
2021/06/19 09:46:35;;;;;;;;;;;34.40;64.50;;;;;;5044707;28;19925;-66
2021/06/19 09:49:29;;;;;;;;;;;33.90;67.30;;;;;;5053514;28;19931;-66
2021/06/19 09:52:28;;;;;;;;;;;31.80;71.30;;;;;;5043425;28;19928;-66
2021/06/19 09:55:17;;;;;;;;;;;31.80;74.50;;;;;;5047701;28;19925;-66
2021/06/19 09:58:06;;;;;;;;;;;32.10;74.60;;;;;;5049520;28;20373;-67
2021/06/19 10:00:54;;;;;;;;;;;32.60;74.20;;;;;;5028246;28;20407;-66
2021/06/19 10:03:52;;;;;;;;;;;32.80;73.00;;;;;;5038633;28;19932;-66
2021/06/19 10:06:40;;;;;;;;;;;33.10;73.40;;;;;;5034898;28;20039;-65
2021/06/19 10:09:29;;;;;;;;;;;32.30;75.60;;;;;;5030399;28;19933;-66
2021/06/19 10:12:19;;;;;;;;;;;31.10;77.70;;;;;;5027365;28;19940;-66
2021/06/19 10:15:08;;;;;;;;;;;31.20;80.50;;;;;;5018400;28;19925;-66
2021/06/19 10:21:12;;;;;;;;;;;31.40;83.20;;;;;;5050054;28;19929;-66
2021/06/19 10:24:00;;;;;;;;;;;31.60;82.60;;;;;;5052546;28;20296;-66
2021/06/19 10:26:50;;;;;;;;;;;32.70;77.80;;;;;;5053424;28;19947;-66
2021/06/19 10:30:05;;;;;;;;;;;33.60;72.10;;;;;;5051281;28;19932;-66
2021/06/19 10:32:54;;;;;;;;;;;33.60;74.40;;;;;;5047803;28;19936;-66
2021/06/19 10:35:50;;;;;;;;;;;33.50;74.60;;;;;;5047129;28;20018;-66
2021/06/19 10:38:48;;;;;;;;;;;33.10;74.90;;;;;;5053586;28;19925;-66
2021/06/19 10:41:48;;;;;;;;;;;32.70;76.50;;;;;;5042723;28;20344;-66
2021/06/19 10:44:50;;;;;;;;;;;33.20;74.30;;;;;;5050595;28;20369;-66
2021/06/19 10:47:54;;;;;;;;;;;32.90;73.20;;;;;;5051705;28;20030;-66
2021/06/19 10:50:43;;;;;;;;;;;32.80;71.90;;;;;;5043191;28;19932;-66
2021/06/19 10:54:16;;;;;;;;;;;33.30;72.60;;;;;;5048123;28;19933;-66
2021/06/19 10:57:05;;;;;;;;;;;33.20;72.00;;;;;;5048733;28;19924;-65
2021/06/19 11:00:22;;;;;;;;;;;33.50;71.80;;;;;;5049410;28;19951;-67
2021/06/19 11:03:11;;;;;;;;;;;34.10;70.00;;;;;;5042096;28;19970;-66
2021/06/19 11:06:00;;;;;;;;;;;35.30;65.90;;;;;;5045124;28;20332;-66
2021/06/19 11:09:07;;;;;;;;;;;36.20;63.40;;;;;;5052222;28;20033;-68
2021/06/19 11:11:59;;;;;;;;;;;35.60;64.40;;;;;;5052887;28;19955;-68
2021/06/19 11:14:55;;;;;;;;;;;35.20;65.60;;;;;;5038604;28;19940;-66
2021/06/19 11:17:48;;;;;;;;;;;34.70;65.50;;;;;;5048668;28;19936;-66
2021/06/19 11:20:36;;;;;;;;;;;33.50;67.40;;;;;;5047320;28;20002;-66
2021/06/19 11:23:25;;;;;;;;;;;33.60;68.30;;;;;;5045601;28;19925;-66
2021/06/19 11:26:29;;;;;;;;;;;32.70;71.00;;;;;;5047952;28;19925;-67
2021/06/19 11:29:37;;;;;;;;;;;32.00;73.90;;;;;;5032391;28;20328;-66
2021/06/19 11:32:27;;;;;;;;;;;31.70;75.90;;;;;;5044633;28;20257;-66
2021/06/19 11:35:22;;;;;;;;;;;32.00;73.30;;;;;;5050724;28;20011;-66
2021/06/19 11:38:10;;;;;;;;;;;31.70;74.10;;;;;;5053399;28;19960;-66
2021/06/19 11:40:59;;;;;;;;;;;31.70;74.20;;;;;;5051632;28;19925;-66
2021/06/19 11:43:49;;;;;;;;;;;31.90;77.60;;;;;;5042502;28;19935;-65
2021/06/19 11:46:39;;;;;;;;;;;31.70;75.20;;;;;;5042866;28;19932;-66
2021/06/19 11:49:32;;;;;;;;;;;31.70;76.80;;;;;;5045410;28;20078;-66
2021/06/19 11:52:21;;;;;;;;;;;32.10;74.70;;;;;;5051259;28;19929;-66
2021/06/19 11:55:10;;;;;;;;;;;32.10;74.40;;;;;;5046681;28;20397;-66
2021/06/19 11:57:58;;;;;;;;;;;31.70;73.90;;;;;;5046705;28;20380;-66
2021/06/19 12:00:53;;;;;;;;;;;31.60;72.70;;;;;;5041251;28;19929;-66
2021/06/19 12:03:43;;;;;;;;;;;31.60;73.80;;;;;;5035595;28;19924;-65
2021/06/19 12:06:32;;;;;;;;;;;31.80;73.40;;;;;;5046032;28;19925;-65
2021/06/19 12:09:22;;;;;;;;;;;31.70;73.20;;;;;;5051787;28;20400;-66
2021/06/19 12:12:11;;;;;;;;;;;31.60;73.60;;;;;;5048387;28;19932;-68
2021/06/19 12:15:00;;;;;;;;;;;31.60;71.80;;;;;;5051253;28;20292;-65
2021/06/19 12:17:49;;;;;;;;;;;31.80;72.00;;;;;;5052466;28;20357;-65
2021/06/19 12:20:39;;;;;;;;;;;31.90;71.80;;;;;;5034362;28;19936;-67
2021/06/19 12:23:35;;;;;;;;;;;32.20;70.60;;;;;;5042115;28;20391;-66
2021/06/19 12:26:24;;;;;;;;;;;32.50;70.80;;;;;;5052854;28;19947;-66
2021/06/19 12:29:13;;;;;;;;;;;32.00;70.90;;;;;;5045103;28;19928;-66
2021/06/19 12:32:03;;;;;;;;;;;32.10;69.70;;;;;;5046466;28;19931;-66
2021/06/19 12:34:57;;;;;;;;;;;31.70;70.60;;;;;;5053281;28;19931;-66
2021/06/19 12:37:51;;;;;;;;;;;31.60;73.30;;;;;;5049254;28;20073;-66
2021/06/19 12:40:42;;;;;;;;;;;31.30;71.50;;;;;;5048552;28;20349;-65
2021/06/19 12:43:30;;;;;;;;;;;31.60;72.40;;;;;;5040893;28;19925;-65
2021/06/19 12:46:19;;;;;;;;;;;32.10;72.00;;;;;;5021295;28;19925;-66
2021/06/19 12:49:08;;;;;;;;;;;32.50;69.40;;;;;;5024775;28;19974;-66
2021/06/19 12:52:23;;;;;;;;;;;32.60;68.30;;;;;;5030797;28;19932;-65
2021/06/19 12:55:14;;;;;;;;;;;32.30;67.70;;;;;;5032072;28;19936;-65
2021/06/19 13:01:40;;;;;;;;;;;32.00;69.90;;;;;;5025072;28;19948;-66
2021/06/19 13:04:30;;;;;;;;;;;32.30;70.90;;;;;;5030669;28;19929;-66
2021/06/19 13:07:18;;;;;;;;;;;32.60;70.10;;;;;;5032579;28;19979;-65
2021/06/19 13:10:08;;;;;;;;;;;32.30;69.10;;;;;;5024573;28;20384;-66
2021/06/19 13:12:58;;;;;;;;;;;32.10;69.50;;;;;;5021490;28;19929;-66
2021/06/19 13:15:56;;;;;;;;;;;32.10;70.20;;;;;;5015450;28;19937;-66
2021/06/19 13:18:57;;;;;;;;;;;32.00;70.50;;;;;;5022259;28;19933;-65
2021/06/19 13:21:46;;;;;;;;;;;31.90;69.40;;;;;;5024018;28;19960;-66
2021/06/19 13:24:36;;;;;;;;;;;32.20;70.10;;;;;;5026678;28;20046;-66
2021/06/19 13:27:24;;;;;;;;;;;32.20;70.70;;;;;;5027160;28;20023;-66
2021/06/19 13:30:16;;;;;;;;;;;32.30;70.10;;;;;;5023959;28;20006;-67
2021/06/19 13:33:05;;;;;;;;;;;32.80;70.30;;;;;;5015256;28;19933;-65
2021/06/19 13:35:54;;;;;;;;;;;33.00;68.70;;;;;;5015550;28;19933;-65
2021/06/19 13:38:57;;;;;;;;;;;32.80;67.90;;;;;;5016507;28;19926;-66
2021/06/19 13:41:46;;;;;;;;;;;31.90;68.40;;;;;;5009169;28;19933;-66
2021/06/19 13:44:38;;;;;;;;;;;32.10;70.70;;;;;;5007811;28;20366;-66
2021/06/19 13:47:28;;;;;;;;;;;32.70;69.30;;;;;;5041074;28;19947;-66
2021/06/19 13:50:19;;;;;;;;;;;32.70;68.40;;;;;;5045349;28;19925;-65
2021/06/19 13:53:08;;;;;;;;;;;32.70;69.10;;;;;;5047372;28;20082;-66
2021/06/19 13:55:58;;;;;;;;;;;33.00;69.10;;;;;;5045311;28;20016;-66
2021/06/19 13:58:46;;;;;;;;;;;33.30;67.90;;;;;;5038653;28;20034;-66
2021/06/19 14:01:35;;;;;;;;;;;32.90;67.40;;;;;;5037696;28;19925;-66
2021/06/19 14:04:29;;;;;;;;;;;32.70;68.40;;;;;;5047647;28;20387;-66
2021/06/19 14:07:19;;;;;;;;;;;32.40;68.90;;;;;;5048412;28;19979;-66
2021/06/19 14:10:08;;;;;;;;;;;32.30;70.70;;;;;;5051470;28;19932;-66
2021/06/19 14:12:58;;;;;;;;;;;32.30;70.20;;;;;;5048590;28;20025;-66
2021/06/19 14:15:47;;;;;;;;;;;32.00;67.50;;;;;;5048261;28;19925;-66
2021/06/19 14:21:50;;;;;;;;;;;32.00;68.80;;;;;;5033132;28;20457;-65
2021/06/19 14:24:39;;;;;;;;;;;32.00;69.40;;;;;;5053253;28;19956;-66
2021/06/19 14:27:27;;;;;;;;;;;32.40;70.60;;;;;;5053894;28;20218;-66
2021/06/19 14:30:16;;;;;;;;;;;32.80;68.80;;;;;;5044625;28;19929;-64
2021/06/19 14:33:05;;;;;;;;;;;32.90;69.30;;;;;;5053518;28;19931;-65
2021/06/19 14:35:54;;;;;;;;;;;32.50;68.60;;;;;;5055004;28;19932;-65
2021/06/19 14:38:44;;;;;;;;;;;32.50;72.80;;;;;;5055034;28;19925;-65
2021/06/19 14:41:35;;;;;;;;;;;32.70;68.70;;;;;;5053038;28;19929;-65
2021/06/19 14:44:24;;;;;;;;;;;32.80;67.40;;;;;;5055077;28;20060;-65
2021/06/19 14:47:13;;;;;;;;;;;32.70;68.90;;;;;;5048702;28;19924;-67
2021/06/19 14:50:02;;;;;;;;;;;32.50;69.30;;;;;;5053303;28;19931;-65
2021/06/19 14:52:51;;;;;;;;;;;32.40;73.40;;;;;;5038278;28;19929;-66
2021/06/19 14:55:41;;;;;;;;;;;32.20;71.20;;;;;;5054027;28;20029;-66
2021/06/19 14:58:55;;;;;;;;;;;32.20;68.90;;;;;;5047277;28;19924;-67
2021/06/19 15:01:43;;;;;;;;;;;32.10;69.50;;;;;;5046779;28;20452;-66
2021/06/19 15:04:35;;;;;;;;;;;32.00;69.00;;;;;;5049496;28;19925;-67
2021/06/19 15:07:23;;;;;;;;;;;32.10;71.00;;;;;;5050158;28;19925;-66
2021/06/19 15:10:13;;;;;;;;;;;32.20;73.50;;;;;;5054340;28;19924;-66
2021/06/19 15:13:03;;;;;;;;;;;32.50;72.30;;;;;;5038061;28;19925;-66
2021/06/19 15:15:52;;;;;;;;;;;32.50;67.60;;;;;;5043149;28;19925;-66
2021/06/19 15:19:06;;;;;;;;;;;32.60;67.10;;;;;;5052159;28;19937;-67
2021/06/19 15:21:56;;;;;;;;;;;32.70;68.10;;;;;;5044090;28;20405;-66
2021/06/19 15:24:44;;;;;;;;;;;32.60;67.30;;;;;;5047408;28;19933;-66
2021/06/19 15:27:33;;;;;;;;;;;32.30;67.60;;;;;;5048235;28;19976;-66
2021/06/19 15:30:23;;;;;;;;;;;32.00;67.30;;;;;;5038929;28;20321;-67
2021/06/19 15:33:12;;;;;;;;;;;32.00;67.40;;;;;;5051887;28;20003;-67
2021/06/19 15:36:00;;;;;;;;;;;32.30;68.40;;;;;;5049562;28;20023;-67
2021/06/19 15:38:50;;;;;;;;;;;32.20;66.70;;;;;;5053388;28;19971;-67
2021/06/19 15:41:39;;;;;;;;;;;32.30;67.90;;;;;;5053226;28;19937;-67
2021/06/19 15:44:28;;;;;;;;;;;32.10;68.30;;;;;;5046419;28;19925;-66
2021/06/19 15:47:18;;;;;;;;;;;32.10;68.90;;;;;;5042804;28;19925;-67
2021/06/19 15:50:08;;;;;;;;;;;32.10;68.40;;;;;;5044701;28;20288;-67
2021/06/19 15:52:57;;;;;;;;;;;32.00;68.70;;;;;;5035585;28;19925;-67
2021/06/19 15:55:46;;;;;;;;;;;32.30;68.60;;;;;;5042953;28;19964;-67
2021/06/19 15:58:39;;;;;;;;;;;32.30;68.30;;;;;;5031038;28;19979;-67
2021/06/19 16:01:28;;;;;;;;;;;32.00;71.50;;;;;;5034287;28;19925;-66
2021/06/19 16:04:17;;;;;;;;;;;31.90;69.20;;;;;;5052235;28;19925;-66
2021/06/19 16:07:06;;;;;;;;;;;32.00;70.90;;;;;;5052704;28;20376;-66
2021/06/19 16:09:54;;;;;;;;;;;31.80;70.90;;;;;;5034147;28;19932;-66
2021/06/19 16:12:43;;;;;;;;;;;31.70;71.50;;;;;;5047904;28;19939;-67
2021/06/19 16:15:32;;;;;;;;;;;31.60;71.40;;;;;;5038934;28;19939;-66
2021/06/19 16:18:20;;;;;;;;;;;31.50;72.70;;;;;;5048246;28;19925;-66
2021/06/19 16:21:11;;;;;;;;;;;31.50;72.50;;;;;;5048718;28;19925;-66
2021/06/19 16:24:00;;;;;;;;;;;31.60;74.80;;;;;;5048157;28;20385;-66
2021/06/19 16:26:49;;;;;;;;;;;31.40;76.30;;;;;;5048194;28;19932;-66
2021/06/19 16:29:37;;;;;;;;;;;31.40;79.40;;;;;;5045522;28;19929;-66
2021/06/19 16:32:27;;;;;;;;;;;31.60;76.50;;;;;;5042158;28;19925;-66
2021/06/19 16:35:17;;;;;;;;;;;31.60;74.90;;;;;;5046809;28;19936;-66
2021/06/19 16:38:07;;;;;;;;;;;31.70;75.30;;;;;;5044287;28;19948;-66
2021/06/19 16:40:56;;;;;;;;;;;31.90;75.00;;;;;;5047064;28;19984;-66
2021/06/19 16:43:45;;;;;;;;;;;31.90;74.80;;;;;;5045810;28;20055;-66
2021/06/19 16:46:33;;;;;;;;;;;32.00;74.70;;;;;;5041540;28;19925;-66
2021/06/19 16:49:22;;;;;;;;;;;31.90;76.10;;;;;;5046567;28;20324;-65
2021/06/19 16:52:11;;;;;;;;;;;31.90;75.00;;;;;;5049727;28;19948;-67
2021/06/19 16:55:01;;;;;;;;;;;32.00;77.50;;;;;;5050566;28;19936;-66
2021/06/19 16:57:50;;;;;;;;;;;32.00;74.60;;;;;;5048555;28;20586;-67